createdAt,value
2023-05-10T00:00:32.678Z,4.40
2023-05-10T00:03:05.773Z,4.80
2023-05-10T00:05:37.569Z,4.50
2023-05-10T00:08:09.306Z,4.20
2023-05-10T00:10:42.354Z,4.20
2023-05-10T00:13:14.298Z,4.20
2023-05-10T00:15:46.074Z,4.10
2023-05-10T00:18:19.372Z,4.60
2023-05-10T00:20:51.220Z,4.20
2023-05-10T00:23:22.779Z,4.90
2023-05-10T00:25:54.343Z,4.90
2023-05-10T00:28:26.121Z,4.60
2023-05-10T00:30:57.909Z,4.30
2023-05-10T00:33:29.754Z,4.40
2023-05-10T00:36:01.304Z,4.90
2023-05-10T00:38:34.318Z,4.00
2023-05-10T00:41:07.112Z,4.10
2023-05-10T00:43:38.722Z,4.70
2023-05-10T00:46:11.204Z,4.80
2023-05-10T00:48:42.992Z,4.30
2023-05-10T00:51:14.874Z,4.40
2023-05-10T00:53:48.219Z,4.50
2023-05-10T00:56:21.810Z,4.90
2023-05-10T00:58:54.076Z,4.80
2023-05-10T01:01:25.950Z,4.50
2023-05-10T01:03:58.345Z,5.10
2023-05-10T01:06:30.176Z,4.60
2023-05-10T01:09:02.370Z,4.40
2023-05-10T01:11:34.877Z,4.50
2023-05-10T01:14:07.669Z,4.40
2023-05-10T01:16:43.181Z,4.60
2023-05-10T01:19:19.976Z,4.70
2023-05-10T01:21:58.292Z,4.00
2023-05-10T01:25:09.791Z,4.20
2023-05-10T01:28:10.297Z,4.40
2023-05-10T01:31:07.340Z,3.90
2023-05-10T01:33:46.888Z,4.30
2023-05-10T01:36:27.324Z,4.20
2023-05-10T01:39:05.034Z,3.90
2023-05-10T01:41:50.699Z,4.10
2023-05-10T01:44:31.988Z,4.20
2023-05-10T01:47:12.428Z,4.00
2023-05-10T01:49:48.908Z,4.30
2023-05-10T01:52:25.174Z,4.50
2023-05-10T01:55:03.086Z,4.70
2023-05-10T01:57:40.840Z,4.30
2023-05-10T02:00:16.293Z,4.40
2023-05-10T02:02:51.734Z,5.00
2023-05-10T02:05:25.634Z,4.30
2023-05-10T02:07:59.357Z,3.90
2023-05-10T02:10:31.842Z,4.20
2023-05-10T02:13:06.024Z,3.60
2023-05-10T02:15:38.697Z,4.60
2023-05-10T02:18:11.900Z,5.00
2023-05-10T02:20:44.741Z,4.00
2023-05-10T02:23:18.117Z,4.20
2023-05-10T02:25:52.355Z,4.20
2023-05-10T02:28:24.451Z,4.30
2023-05-10T02:30:57.287Z,4.80
2023-05-10T02:33:32.618Z,4.60
2023-05-10T02:36:06.756Z,4.40
2023-05-10T02:38:39.454Z,4.30
2023-05-10T02:41:14.104Z,4.40
2023-05-10T02:43:46.887Z,4.30
2023-05-10T02:46:18.746Z,4.80
2023-05-10T02:48:50.474Z,4.90
2023-05-10T02:51:25.914Z,4.30
2023-05-10T02:54:00.018Z,4.40
2023-05-10T02:56:36.391Z,4.00
2023-05-10T02:59:08.136Z,4.20
2023-05-10T03:01:39.810Z,4.80
2023-05-10T03:04:11.321Z,4.20
2023-05-10T03:06:44.785Z,4.50
2023-05-10T03:09:17.672Z,4.10
2023-05-10T03:12:03.624Z,4.40
2023-05-10T03:14:46.338Z,4.30
2023-05-10T03:17:24.292Z,4.50
2023-05-10T03:19:59.056Z,5.30
2023-05-10T03:25:08.163Z,4.40
2023-05-10T03:27:42.796Z,4.60
2023-05-10T03:30:16.911Z,4.20
2023-05-10T03:32:49.153Z,4.10
2023-05-10T03:35:20.813Z,4.20
2023-05-10T03:37:52.342Z,3.70
2023-05-10T03:40:24.331Z,3.80
2023-05-10T03:42:55.927Z,3.90
2023-05-10T03:45:27.749Z,4.10
2023-05-10T03:48:08.004Z,3.90
2023-05-10T03:50:51.373Z,3.50
2023-05-10T03:53:35.444Z,4.10
2023-05-10T03:56:19.551Z,3.80
2023-05-10T03:59:02.453Z,3.60
2023-05-10T04:01:46.486Z,3.90
2023-05-10T04:04:28.441Z,4.70
2023-05-10T04:07:10.814Z,3.90
2023-05-10T04:09:52.300Z,4.20
2023-05-10T04:12:36.318Z,3.90
2023-05-10T04:15:10.245Z,3.70
2023-05-10T04:17:42.213Z,4.00
2023-05-10T04:20:16.327Z,4.10
2023-05-10T04:22:48.193Z,3.70
2023-05-10T04:25:19.994Z,3.90
2023-05-10T04:27:51.557Z,3.80
2023-05-10T04:30:23.781Z,3.80
2023-05-10T04:32:55.383Z,3.90
2023-05-10T04:35:27.501Z,4.20
2023-05-10T04:37:59.123Z,3.80
2023-05-10T04:40:30.912Z,3.30
2023-05-10T04:43:02.777Z,4.20
2023-05-10T04:45:34.573Z,3.50
2023-05-10T04:48:06.717Z,3.90
2023-05-10T04:50:38.392Z,3.20
2023-05-10T04:53:09.823Z,3.60
2023-05-10T04:55:42.235Z,3.60
2023-05-10T04:58:13.780Z,3.70
2023-05-10T05:00:45.695Z,3.60
2023-05-10T05:03:17.449Z,3.40
2023-05-10T05:05:49.473Z,3.60
2023-05-10T05:08:21.149Z,3.10
2023-05-10T05:10:53.828Z,3.90
2023-05-10T05:13:25.552Z,3.60
2023-05-10T05:15:57.444Z,3.50
2023-05-10T05:18:29.078Z,3.30
2023-05-10T05:21:03.452Z,3.10
2023-05-10T05:23:35.099Z,3.60
2023-05-10T05:26:06.912Z,3.50
2023-05-10T05:28:39.315Z,3.40
2023-05-10T05:31:11.742Z,3.20
2023-05-10T05:33:45.091Z,3.30
2023-05-10T05:36:16.899Z,3.00
2023-05-10T05:38:48.580Z,3.40
2023-05-10T05:41:23.170Z,3.10
2023-05-10T05:43:55.017Z,3.10
2023-05-10T05:46:26.755Z,3.40
2023-05-10T05:48:58.451Z,4.70
2023-05-10T05:51:30.048Z,3.00
2023-05-10T05:54:01.639Z,2.90
2023-05-10T05:56:33.306Z,3.00
2023-05-10T05:59:05.439Z,2.80
2023-05-10T06:01:37.133Z,2.50
2023-05-10T06:04:08.964Z,4.00
2023-05-10T06:06:40.917Z,2.80
2023-05-10T06:09:13.796Z,2.90
2023-05-10T06:11:45.521Z,2.70
2023-05-10T06:14:18.788Z,2.60
2023-05-10T06:16:51.446Z,3.10
2023-05-10T06:19:23.755Z,3.10
2023-05-10T06:21:55.781Z,2.40
2023-05-10T06:24:28.439Z,2.30
2023-05-10T06:27:02.399Z,2.50
2023-05-10T06:29:34.521Z,2.50
2023-05-10T06:32:06.243Z,2.60
2023-05-10T06:34:37.664Z,2.70
2023-05-10T06:37:09.327Z,2.70
2023-05-10T06:39:40.803Z,3.20
2023-05-10T06:42:12.893Z,2.70
2023-05-10T06:44:44.829Z,2.40
2023-05-10T06:47:16.411Z,2.40
2023-05-10T06:49:49.493Z,2.70
2023-05-10T06:52:21.261Z,2.30
2023-05-10T06:54:53.628Z,2.30
2023-05-10T06:57:31.628Z,2.30
2023-05-10T07:00:06.347Z,2.50
2023-05-10T07:02:39.291Z,2.50
2023-05-10T07:05:13.193Z,2.20
2023-05-10T07:07:44.938Z,2.30
2023-05-10T07:10:16.558Z,2.80
2023-05-10T07:12:49.575Z,2.80
2023-05-10T07:15:21.617Z,2.30
2023-05-10T07:17:54.397Z,2.40
2023-05-10T07:20:26.177Z,4.00
2023-05-10T07:22:58.020Z,2.50
2023-05-10T07:25:30.208Z,2.40
2023-05-10T07:28:01.924Z,2.80
2023-05-10T07:30:34.223Z,2.80
2023-05-10T07:33:06.111Z,2.50
2023-05-10T07:35:38.484Z,2.20
2023-05-10T07:38:12.251Z,3.50
2023-05-10T07:40:44.055Z,2.90
2023-05-10T07:43:16.148Z,2.30
2023-05-10T07:45:47.715Z,2.30
2023-05-10T07:48:20.512Z,2.40
2023-05-10T07:50:52.094Z,2.10
2023-05-10T07:53:26.519Z,2.50
2023-05-10T07:56:00.900Z,2.40
2023-05-10T07:58:33.073Z,3.60
2023-05-10T08:01:06.013Z,2.20
2023-05-10T08:03:37.784Z,2.20
2023-05-10T08:06:10.145Z,2.40
2023-05-10T08:08:42.261Z,2.10
2023-05-10T08:11:14.014Z,1.90
2023-05-10T08:13:45.756Z,2.20
2023-05-10T08:16:18.113Z,2.10
2023-05-10T08:18:50.526Z,2.00
2023-05-10T08:21:23.766Z,1.90
2023-05-10T08:23:56.186Z,2.20
2023-05-10T08:26:28.664Z,2.00
2023-05-10T08:29:00.363Z,2.10
2023-05-10T08:31:32.365Z,2.10
2023-05-10T08:34:04.254Z,1.80
2023-05-10T08:36:36.088Z,2.40
2023-05-10T08:39:16.206Z,2.10
2023-05-10T08:41:56.985Z,2.70
2023-05-10T08:44:30.588Z,2.40
2023-05-10T08:47:05.737Z,2.20
2023-05-10T08:49:39.912Z,2.00
2023-05-10T08:52:15.442Z,1.90
2023-05-10T08:54:47.334Z,2.50
2023-05-10T08:57:18.979Z,2.30
2023-05-10T08:59:50.870Z,2.30
2023-05-10T09:02:23.928Z,2.30
2023-05-10T09:04:56.096Z,2.60
2023-05-10T09:07:28.336Z,1.90
2023-05-10T09:10:01.493Z,1.80
2023-05-10T09:12:34.776Z,2.20
2023-05-10T09:15:08.142Z,1.90
2023-05-10T09:17:41.367Z,2.30
2023-05-10T09:20:13.607Z,2.00
2023-05-10T09:22:46.252Z,2.00
2023-05-10T09:25:19.946Z,2.50
2023-05-10T09:27:52.179Z,1.90
2023-05-10T09:30:29.637Z,2.10
2023-05-10T09:33:02.222Z,1.90
2023-05-10T09:35:35.450Z,2.00
2023-05-10T09:38:08.132Z,2.00
2023-05-10T09:40:40.055Z,2.30
2023-05-10T09:43:12.951Z,2.10
2023-05-10T09:45:45.895Z,2.20
2023-05-10T09:48:17.769Z,1.80
2023-05-10T09:50:58.817Z,2.00
2023-05-10T09:53:31.283Z,2.10
2023-05-10T09:56:03.129Z,2.30
2023-05-10T09:58:39.382Z,2.20
2023-05-10T10:01:15.473Z,2.10
2023-05-10T10:03:47.829Z,2.20
2023-05-10T10:06:30.101Z,2.10
2023-05-10T10:09:02.632Z,2.10
2023-05-10T10:11:34.416Z,2.20
2023-05-10T10:14:06.645Z,1.80
2023-05-10T10:16:45.787Z,1.90
2023-05-10T10:19:24.275Z,2.00
2023-05-10T10:21:55.814Z,2.10
2023-05-10T10:24:27.404Z,1.90
2023-05-10T10:27:05.882Z,3.30
2023-05-10T10:29:44.306Z,3.10
2023-05-10T10:32:28.510Z,2.10
2023-05-10T10:35:00.768Z,2.20
2023-05-10T10:40:50.336Z,2.00
2023-05-10T10:43:27.290Z,3.70
2023-05-10T10:46:16.198Z,2.10
2023-05-10T10:48:49.853Z,2.00
2023-05-10T10:51:19.345Z,1.90
2023-05-10T10:53:50.205Z,2.30
2023-05-10T10:56:24.871Z,5.00
2023-05-10T10:58:54.438Z,3.80
2023-05-10T11:01:23.525Z,3.20
2023-05-10T11:04:20.997Z,2.40
2023-05-10T11:06:49.871Z,3.00
2023-05-10T11:09:18.700Z,2.20
2023-05-10T11:11:56.343Z,1.90
2023-05-10T11:14:25.813Z,2.20
2023-05-10T11:16:55.586Z,2.30
2023-05-10T11:19:29.496Z,3.10
2023-05-10T11:22:15.233Z,3.30
2023-05-10T11:24:59.298Z,2.20
2023-05-10T11:27:28.535Z,2.20
2023-05-10T11:29:58.045Z,2.30
2023-05-10T11:32:27.584Z,2.20
2023-05-10T11:34:57.074Z,3.00
2023-05-10T11:37:32.864Z,2.00
2023-05-10T11:40:04.116Z,2.00
2023-05-10T11:42:34.426Z,2.00
2023-05-10T11:45:04.160Z,2.40
2023-05-10T11:47:33.394Z,2.30
2023-05-10T11:50:03.056Z,2.40
2023-05-10T11:52:36.677Z,2.00
2023-05-10T11:55:07.313Z,2.40
2023-05-10T11:57:39.076Z,2.10
2023-05-10T12:00:10.282Z,2.10
2023-05-10T12:02:40.212Z,2.10
2023-05-10T12:05:12.838Z,2.30
2023-05-10T12:07:41.735Z,2.30
2023-05-10T12:10:15.275Z,2.00
2023-05-10T12:12:46.025Z,1.90
2023-05-10T12:15:20.703Z,2.00
2023-05-10T12:17:50.789Z,1.90
2023-05-10T12:20:22.066Z,1.90
2023-05-10T12:22:52.746Z,2.10
2023-05-10T12:25:23.724Z,2.30
2023-05-10T12:30:42.099Z,2.00
2023-05-10T12:33:13.798Z,2.10
2023-05-10T12:35:54.361Z,2.10
2023-05-10T12:38:30.400Z,2.00
2023-05-10T12:41:00.991Z,1.90
2023-05-10T12:43:30.351Z,2.10
2023-05-10T12:45:59.411Z,1.80
2023-05-10T12:48:29.279Z,2.60
2023-05-10T12:50:58.597Z,2.80
2023-05-10T12:53:27.571Z,2.20
2023-05-10T12:55:56.571Z,2.10
2023-05-10T12:58:34.826Z,2.10
2023-05-10T13:01:06.003Z,2.10
2023-05-10T13:03:35.066Z,2.40
2023-05-10T13:06:04.791Z,2.10
2023-05-10T13:08:34.167Z,2.80
2023-05-10T13:11:04.479Z,2.10
2023-05-10T13:13:33.796Z,1.90
2023-05-10T13:16:02.960Z,2.00
2023-05-10T13:18:31.739Z,1.90
2023-05-10T13:21:00.919Z,1.70
2023-05-10T13:23:29.706Z,2.70
2023-05-10T13:25:58.642Z,1.80
2023-05-10T13:28:27.627Z,2.50
2023-05-10T13:30:56.728Z,2.20
2023-05-10T13:33:25.624Z,2.60
2023-05-10T13:35:55.748Z,2.10
2023-05-10T13:38:25.286Z,2.10
2023-05-10T13:40:55.241Z,2.00
2023-05-10T13:43:24.978Z,1.90
2023-05-10T13:45:54.201Z,1.80
2023-05-10T13:48:23.485Z,2.20
2023-05-10T13:50:52.451Z,2.50
2023-05-10T13:53:23.696Z,2.10
2023-05-10T13:55:53.890Z,2.30
2023-05-10T13:58:22.848Z,1.90
2023-05-10T14:00:52.185Z,2.20
2023-05-10T14:03:22.689Z,2.70
2023-05-10T14:05:51.538Z,2.40
2023-05-10T14:08:20.674Z,3.40
2023-05-10T14:10:49.874Z,2.10
2023-05-10T14:13:18.932Z,2.20
2023-05-10T14:15:48.318Z,2.00
2023-05-10T14:18:17.347Z,2.10
2023-05-10T14:20:46.359Z,2.20
2023-05-10T14:23:15.377Z,2.20
2023-05-10T14:25:44.264Z,1.90
2023-05-10T14:28:13.385Z,2.20
2023-05-10T14:30:42.931Z,2.70
2023-05-10T14:33:13.390Z,4.70
2023-05-10T14:35:43.447Z,1.90
2023-05-10T14:38:13.138Z,2.20
2023-05-10T14:40:42.341Z,2.10
2023-05-10T14:43:11.644Z,2.00
2023-05-10T14:45:40.697Z,2.40
2023-05-10T14:48:12.786Z,1.90
2023-05-10T14:50:42.122Z,2.20
2023-05-10T14:53:11.997Z,2.30
2023-05-10T14:55:41.885Z,2.30
2023-05-10T14:58:11.081Z,2.20
2023-05-10T15:00:39.633Z,2.20
2023-05-10T15:03:09.313Z,2.10
2023-05-10T15:05:38.541Z,2.30
2023-05-10T15:08:07.831Z,2.10
2023-05-10T15:10:37.305Z,2.20
2023-05-10T15:13:06.718Z,2.50
2023-05-10T15:15:35.515Z,2.00
2023-05-10T15:18:06.290Z,2.10
2023-05-10T15:20:35.568Z,2.80
2023-05-10T15:23:04.658Z,2.40
2023-05-10T15:25:35.464Z,2.30
2023-05-10T15:28:05.248Z,2.10
2023-05-10T15:30:34.223Z,1.80
2023-05-10T15:33:03.447Z,2.00
2023-05-10T15:35:33.442Z,2.00
2023-05-10T15:38:02.451Z,2.30
2023-05-10T15:40:31.361Z,2.50
2023-05-10T15:43:00.414Z,2.50
2023-05-10T15:45:29.646Z,2.20
2023-05-10T15:47:59.511Z,2.20
2023-05-10T15:50:29.092Z,2.30
2023-05-10T15:52:58.856Z,2.50
2023-05-10T15:55:28.600Z,2.20
2023-05-10T15:57:57.774Z,2.30
2023-05-10T16:00:27.510Z,2.40
2023-05-10T16:02:57.319Z,1.80
2023-05-10T16:05:31.543Z,2.10
2023-05-10T16:08:01.362Z,2.20
2023-05-10T16:10:33.366Z,2.10
2023-05-10T16:13:03.415Z,2.50
2023-05-10T16:15:32.389Z,2.30
2023-05-10T16:18:01.433Z,2.10
2023-05-10T16:20:31.001Z,2.40
2023-05-10T16:23:03.716Z,2.80
2023-05-10T16:25:33.450Z,2.60
2023-05-10T16:28:02.929Z,2.70
2023-05-10T16:30:32.418Z,2.30
2023-05-10T16:33:02.723Z,2.20
2023-05-10T16:35:31.705Z,2.40
2023-05-10T16:38:00.694Z,2.50
2023-05-10T16:40:29.847Z,2.10
2023-05-10T16:42:59.214Z,2.70
2023-05-10T16:45:28.413Z,2.20
2023-05-10T16:47:57.607Z,2.40
2023-05-10T16:50:26.587Z,2.30
2023-05-10T16:52:55.438Z,2.10
2023-05-10T16:55:26.367Z,2.30
2023-05-10T16:57:59.450Z,2.10
2023-05-10T17:00:28.664Z,2.30
2023-05-10T17:02:59.036Z,2.50
2023-05-10T17:05:28.273Z,2.90
2023-05-10T17:07:57.570Z,2.40
2023-05-10T17:10:26.721Z,2.00
2023-05-10T17:12:56.414Z,2.30
2023-05-10T17:15:26.223Z,2.30
2023-05-10T17:17:55.486Z,2.80
2023-05-10T17:20:26.206Z,2.40
2023-05-10T17:22:55.354Z,2.80
2023-05-10T17:25:25.779Z,2.70
2023-05-10T17:27:55.726Z,2.40
2023-05-10T17:30:27.142Z,2.70
2023-05-10T17:32:56.097Z,2.50
2023-05-10T17:35:25.121Z,2.40
2023-05-10T17:37:54.229Z,2.50
2023-05-10T17:40:23.646Z,2.50
2023-05-10T17:42:52.922Z,2.60
2023-05-10T17:45:22.159Z,2.40
2023-05-10T17:47:51.306Z,2.20
2023-05-10T17:50:20.662Z,2.30
2023-05-10T17:52:49.674Z,2.30
2023-05-10T17:55:19.653Z,2.10
2023-05-10T17:57:51.155Z,2.30
2023-05-10T18:00:21.674Z,2.50
2023-05-10T18:02:50.862Z,2.40
2023-05-10T18:05:21.397Z,2.30
2023-05-10T18:07:51.309Z,2.20
2023-05-10T18:10:21.321Z,2.10
2023-05-10T18:12:51.384Z,2.60
2023-05-10T18:15:21.586Z,2.90
2023-05-10T18:17:52.283Z,3.20
2023-05-10T18:20:21.982Z,3.30
2023-05-10T18:22:51.826Z,4.50
2023-05-10T18:25:22.056Z,5.00
2023-05-10T18:27:51.154Z,5.40
2023-05-10T18:30:22.191Z,4.40
2023-05-10T18:32:51.771Z,4.60
2023-05-10T18:35:22.245Z,4.70
2023-05-10T18:37:52.537Z,5.80
2023-05-10T18:40:22.146Z,6.00
2023-05-10T18:42:51.962Z,6.10
2023-05-10T18:45:21.404Z,5.50
2023-05-10T18:47:51.150Z,5.00
2023-05-10T18:50:20.579Z,4.90
2023-05-10T18:52:50.216Z,5.30
2023-05-10T18:55:20.556Z,4.60
2023-05-10T18:57:50.674Z,3.60
2023-05-10T19:00:20.522Z,3.60
2023-05-10T19:02:49.929Z,3.20
2023-05-10T19:05:20.906Z,3.10
2023-05-10T19:07:51.580Z,3.60
2023-05-10T19:10:22.733Z,3.30
2023-05-10T19:12:55.673Z,2.90
2023-05-10T19:15:31.468Z,3.10
2023-05-10T19:18:04.826Z,3.40
2023-05-10T19:20:37.269Z,3.10
2023-05-10T19:23:10.242Z,3.90
2023-05-10T19:25:42.443Z,3.40
2023-05-10T19:28:17.095Z,3.10
2023-05-10T19:33:18.293Z,3.00
2023-05-10T19:35:48.132Z,3.10
2023-05-10T19:38:21.013Z,3.40
2023-05-10T19:40:50.860Z,2.90
2023-05-10T19:43:24.085Z,3.10
2023-05-10T19:45:54.699Z,3.20
2023-05-10T19:48:24.570Z,2.80
2023-05-10T19:50:54.203Z,3.00
2023-05-10T19:53:32.574Z,3.10
2023-05-10T19:56:07.519Z,2.90
2023-05-10T19:58:37.702Z,3.40
2023-05-10T20:01:08.453Z,2.90
2023-05-10T20:03:38.287Z,3.10
2023-05-10T20:06:08.291Z,3.20
2023-05-10T20:08:37.401Z,3.30
2023-05-10T20:11:07.579Z,3.30
2023-05-10T20:13:37.347Z,3.10
2023-05-10T20:16:07.228Z,3.40
2023-05-10T20:18:37.916Z,3.10
2023-05-10T20:21:06.949Z,3.10
2023-05-10T20:23:35.803Z,2.80
2023-05-10T20:26:05.603Z,3.10
2023-05-10T20:28:35.137Z,3.30
2023-05-10T20:31:04.314Z,3.70
2023-05-10T20:33:33.240Z,3.60
2023-05-10T20:36:02.308Z,4.20
2023-05-10T20:38:31.365Z,3.30
2023-05-10T20:41:00.232Z,3.30
2023-05-10T20:43:29.629Z,3.30
2023-05-10T20:46:04.697Z,3.50
2023-05-10T20:48:34.237Z,3.60
2023-05-10T20:51:04.109Z,3.60
2023-05-10T20:53:33.279Z,3.10
2023-05-10T20:56:02.639Z,3.00
2023-05-10T20:58:32.106Z,3.30
2023-05-10T21:01:02.845Z,3.60
2023-05-10T21:03:32.471Z,3.20
2023-05-10T21:06:02.358Z,2.70
2023-05-10T21:08:31.331Z,2.90
2023-05-10T21:11:03.830Z,3.00
2023-05-10T21:13:33.132Z,3.00
2023-05-10T21:16:03.256Z,2.80
2023-05-10T21:18:32.210Z,3.20
2023-05-10T21:21:01.266Z,3.10
2023-05-10T21:23:31.172Z,2.90
2023-05-10T21:26:02.498Z,3.30
2023-05-10T21:28:31.566Z,3.40
2023-05-10T21:31:01.723Z,2.70
2023-05-10T21:33:31.287Z,2.90
2023-05-10T21:36:00.526Z,2.80
2023-05-10T21:38:30.681Z,3.20
2023-05-10T21:40:59.780Z,2.80
2023-05-10T21:43:28.816Z,3.30
2023-05-10T21:45:57.705Z,3.10
2023-05-10T21:48:27.065Z,2.90
2023-05-10T21:50:56.076Z,3.20
2023-05-10T21:53:25.307Z,3.00
2023-05-10T21:55:54.857Z,3.10
2023-05-10T21:58:24.818Z,3.40
2023-05-10T22:00:54.066Z,3.30
2023-05-10T22:03:23.482Z,3.50
2023-05-10T22:05:52.492Z,3.70
2023-05-10T22:08:22.240Z,3.20
2023-05-10T22:10:51.821Z,3.40
2023-05-10T22:13:20.957Z,3.50
2023-05-10T22:15:49.804Z,3.60
2023-05-10T22:18:18.928Z,3.30
2023-05-10T22:20:48.037Z,4.00
2023-05-10T22:23:17.240Z,3.30
2023-05-10T22:25:46.273Z,3.00
2023-05-10T22:28:15.414Z,3.00
2023-05-10T22:30:44.725Z,3.50
2023-05-10T22:33:34.055Z,3.10
2023-05-10T22:36:02.925Z,3.50
2023-05-10T22:38:31.685Z,3.20
2023-05-10T22:41:05.489Z,4.00
2023-05-10T22:43:34.542Z,3.40
2023-05-10T22:46:04.950Z,3.10
2023-05-10T22:48:35.885Z,3.40
2023-05-10T22:51:04.939Z,3.50
2023-05-10T22:53:33.644Z,3.80
2023-05-10T22:56:02.780Z,3.90
2023-05-10T22:58:32.986Z,3.20
2023-05-10T23:01:03.389Z,3.50
2023-05-10T23:03:32.154Z,3.90
2023-05-10T23:06:00.900Z,3.90
2023-05-10T23:08:29.781Z,3.50
2023-05-10T23:10:58.908Z,3.00
2023-05-10T23:13:27.567Z,3.00
2023-05-10T23:15:56.849Z,3.10
2023-05-10T23:18:25.618Z,3.10
2023-05-10T23:20:55.420Z,2.90
2023-05-10T23:23:24.481Z,3.20
2023-05-10T23:25:53.460Z,3.30
2023-05-10T23:28:22.193Z,3.20
2023-05-10T23:30:55.936Z,3.20
2023-05-10T23:33:26.154Z,3.00
2023-05-10T23:35:55.737Z,3.20
2023-05-10T23:38:24.578Z,3.00
2023-05-10T23:40:54.069Z,3.60
2023-05-10T23:43:25.033Z,3.40
2023-05-10T23:45:57.861Z,3.20
2023-05-10T23:48:26.927Z,3.00
2023-05-10T23:50:56.403Z,3.30
2023-05-10T23:53:25.132Z,3.10
2023-05-10T23:55:54.055Z,2.80
2023-05-10T23:58:22.633Z,3.60
